createdAt,value
2019-01-20T00:03:12.982Z,6.93
2019-01-20T00:05:40.194Z,6.53
2019-01-20T00:08:07.406Z,6.63
2019-01-20T00:10:34.631Z,5.93
2019-01-20T00:13:01.858Z,6.27
2019-01-20T00:15:29.362Z,5.67
2019-01-20T00:17:56.586Z,5.73
2019-01-20T00:20:23.891Z,6.13
2019-01-20T00:22:52.739Z,5.37
2019-01-20T00:25:20.035Z,4.60
2019-01-20T00:27:47.288Z,4.93
2019-01-20T00:33:07.994Z,5.00
2019-01-20T00:35:35.187Z,5.23
2019-01-20T00:38:02.431Z,5.13
2019-01-20T00:40:29.657Z,4.63
2019-01-20T00:42:56.870Z,4.43
2019-01-20T00:45:24.098Z,4.60
2019-01-20T00:47:51.566Z,4.47
2019-01-20T00:50:18.799Z,4.77
2019-01-20T00:52:46.051Z,4.83
2019-01-20T00:55:32.639Z,4.73
2019-01-20T00:57:59.910Z,4.40
2019-01-20T01:03:21.214Z,5.10
2019-01-20T01:05:48.714Z,4.67
2019-01-20T01:08:16.177Z,5.30
2019-01-20T01:10:43.409Z,5.20
2019-01-20T01:13:10.875Z,4.87
2019-01-20T01:15:38.078Z,4.77
2019-01-20T01:18:05.379Z,5.50
2019-01-20T01:20:32.587Z,6.37
2019-01-20T01:23:00.086Z,5.37
2019-01-20T01:25:27.303Z,4.97
2019-01-20T01:27:54.538Z,4.50
2019-01-20T01:33:29.346Z,4.97
2019-01-20T01:35:56.550Z,4.10
2019-01-20T01:38:24.059Z,5.33
2019-01-20T01:40:51.263Z,4.50
2019-01-20T01:43:18.750Z,4.70
2019-01-20T01:45:45.978Z,4.20
2019-01-20T01:48:13.459Z,4.27
2019-01-20T01:50:40.665Z,4.67
2019-01-20T01:53:07.898Z,4.47
2019-01-20T01:55:35.106Z,4.50
2019-01-20T01:58:02.310Z,4.87
2019-01-20T02:00:29.918Z,4.93
2019-01-20T02:02:57.126Z,4.60
2019-01-20T02:05:24.334Z,4.10
2019-01-20T02:07:51.637Z,4.77
2019-01-20T02:13:26.106Z,4.17
2019-01-20T02:15:53.333Z,4.23
2019-01-20T02:18:20.541Z,4.30
2019-01-20T02:20:47.767Z,4.20
2019-01-20T02:23:15.321Z,4.20
2019-01-20T02:25:42.529Z,4.17
2019-01-20T02:28:09.736Z,4.33
2019-01-20T02:30:37.282Z,4.70
2019-01-20T02:33:04.488Z,4.27
2019-01-20T02:35:31.700Z,4.53
2019-01-20T02:38:06.480Z,4.50
2019-01-20T02:40:34.067Z,4.37
2019-01-20T02:43:01.527Z,3.83
2019-01-20T02:45:28.749Z,3.97
2019-01-20T02:47:56.230Z,4.13
2019-01-20T02:50:23.458Z,4.60
2019-01-20T02:52:50.670Z,4.63
2019-01-20T02:55:17.897Z,4.50
2019-01-20T02:57:45.122Z,4.67
2019-01-20T03:00:31.702Z,4.50
2019-01-20T03:02:58.925Z,4.50
2019-01-20T03:05:26.198Z,4.10
2019-01-20T03:07:53.422Z,4.17
2019-01-20T03:10:20.626Z,4.47
2019-01-20T03:12:47.883Z,3.83
2019-01-20T03:15:15.554Z,4.00
2019-01-20T03:17:42.773Z,4.57
2019-01-20T03:23:17.248Z,3.50
2019-01-20T03:25:44.453Z,4.60
2019-01-20T03:28:11.655Z,4.60
2019-01-20T03:30:38.886Z,4.03
2019-01-20T03:33:06.121Z,4.30
2019-01-20T03:35:33.369Z,3.97
2019-01-20T03:38:00.609Z,4.00
2019-01-20T03:40:27.825Z,3.93
2019-01-20T03:42:55.031Z,4.00
2019-01-20T03:45:22.262Z,4.20
2019-01-20T03:47:49.538Z,4.07
2019-01-20T03:53:10.481Z,4.47
2019-01-20T03:55:37.931Z,4.57
2019-01-20T03:58:05.136Z,4.77
2019-01-20T04:00:32.370Z,4.57
2019-01-20T04:05:47.942Z,5.17
2019-01-20T04:08:15.138Z,4.37
2019-01-20T04:10:42.367Z,4.63
2019-01-20T04:13:09.889Z,5.00
2019-01-20T04:15:37.162Z,5.30
2019-01-20T04:20:58.349Z,4.60
2019-01-20T04:23:25.553Z,4.50
2019-01-20T04:25:53.187Z,4.50
2019-01-20T04:28:20.409Z,4.27
2019-01-20T04:30:47.608Z,4.10
2019-01-20T04:33:14.835Z,3.80
2019-01-20T04:35:42.042Z,4.40
2019-01-20T04:38:09.270Z,3.67
2019-01-20T04:40:36.477Z,4.27
2019-01-20T04:43:03.731Z,3.70
2019-01-20T04:45:30.986Z,3.73
2019-01-20T04:47:58.196Z,4.17
2019-01-20T04:50:25.426Z,4.20
2019-01-20T04:52:52.942Z,4.33
2019-01-20T04:55:20.242Z,4.17
2019-01-20T04:58:06.831Z,4.00
2019-01-20T05:00:34.034Z,4.23
2019-01-20T05:03:20.590Z,4.40
2019-01-20T05:05:47.881Z,3.73
2019-01-20T05:08:15.370Z,4.23
2019-01-20T05:10:42.923Z,4.13
2019-01-20T05:13:10.154Z,4.00
2019-01-20T05:15:37.378Z,4.30
2019-01-20T05:18:04.882Z,4.50
2019-01-20T05:20:32.102Z,4.17
2019-01-20T05:22:59.328Z,3.60
2019-01-20T05:25:26.891Z,3.83
2019-01-20T05:27:54.133Z,4.17
2019-01-20T05:33:14.773Z,4.00
2019-01-20T05:35:42.265Z,4.43
2019-01-20T05:38:09.480Z,4.90
2019-01-20T05:40:36.978Z,5.73
2019-01-20T05:43:04.209Z,5.77
2019-01-20T05:45:31.410Z,4.90
2019-01-20T05:47:58.617Z,4.70
2019-01-20T05:50:25.837Z,7.20
2019-01-20T05:52:53.049Z,10.30
2019-01-20T05:55:20.593Z,10.97
2019-01-20T05:57:47.829Z,21.73
2019-01-20T06:00:34.842Z,5.03
2019-01-20T06:03:02.121Z,4.43
2019-01-20T06:05:29.370Z,4.43
2019-01-20T06:07:56.602Z,3.70
2019-01-20T06:10:24.072Z,5.10
2019-01-20T06:12:54.161Z,6.37
2019-01-20T06:18:27.495Z,4.97
2019-01-20T06:20:54.946Z,4.43
2019-01-20T06:23:22.174Z,3.50
2019-01-20T06:25:49.377Z,4.00
2019-01-20T06:28:16.577Z,4.17
2019-01-20T06:30:43.801Z,4.07
2019-01-20T06:33:11.246Z,4.43
2019-01-20T06:35:38.760Z,4.23
2019-01-20T06:38:05.962Z,4.50
2019-01-20T06:40:33.197Z,3.53
2019-01-20T06:43:02.027Z,3.73
2019-01-20T06:45:29.354Z,4.10
2019-01-20T06:47:56.866Z,4.10
2019-01-20T06:50:24.137Z,3.90
2019-01-20T06:52:51.358Z,4.60
2019-01-20T06:55:18.561Z,4.50
2019-01-20T06:57:45.799Z,5.20
2019-01-20T07:00:32.343Z,4.23
2019-01-20T07:02:59.569Z,4.47
2019-01-20T07:05:26.780Z,4.40
2019-01-20T07:07:54.239Z,4.30
2019-01-20T07:10:21.788Z,4.20
2019-01-20T07:12:49.243Z,3.87
2019-01-20T07:15:35.802Z,4.43
2019-01-20T07:18:03.006Z,4.40
2019-01-20T07:20:30.555Z,4.13
2019-01-20T07:22:58.022Z,4.20
2019-01-20T07:25:25.252Z,3.97
2019-01-20T07:27:52.718Z,4.27
2019-01-20T07:33:13.446Z,4.20
2019-01-20T07:35:40.642Z,4.90
2019-01-20T07:38:07.878Z,6.93
2019-01-20T07:40:35.111Z,6.63
2019-01-20T07:43:02.642Z,4.53
2019-01-20T07:45:29.866Z,4.50
2019-01-20T07:47:57.235Z,3.87
2019-01-20T07:50:26.274Z,4.03
2019-01-20T07:52:53.802Z,4.70
2019-01-20T07:55:21.041Z,4.37
2019-01-20T07:57:48.611Z,4.07
2019-01-20T08:00:35.338Z,4.50
2019-01-20T08:03:02.608Z,4.33
2019-01-20T08:05:29.810Z,4.50
2019-01-20T08:07:57.033Z,4.90
2019-01-20T08:13:31.511Z,4.07
2019-01-20T08:15:58.713Z,4.60
2019-01-20T08:18:25.937Z,4.60
2019-01-20T08:20:53.153Z,4.47
2019-01-20T08:23:20.358Z,4.90
2019-01-20T08:25:47.587Z,5.10
2019-01-20T08:28:15.117Z,5.23
2019-01-20T08:30:42.578Z,4.90
2019-01-20T08:33:09.817Z,4.60
2019-01-20T08:35:37.282Z,4.77
2019-01-20T08:38:04.562Z,5.87
2019-01-20T08:40:31.789Z,4.80
2019-01-20T08:42:59.246Z,4.53
2019-01-20T08:51:14.246Z,4.83
2019-01-20T08:53:41.455Z,4.80
2019-01-20T08:56:08.683Z,5.67
2019-01-20T08:58:35.890Z,6.37
2019-01-20T09:01:03.126Z,5.37
2019-01-20T09:03:30.328Z,5.03
2019-01-20T09:05:57.854Z,4.97
2019-01-20T09:08:25.058Z,5.57
2019-01-20T09:10:52.292Z,5.20
2019-01-20T09:13:20.646Z,5.53
2019-01-20T09:15:48.438Z,5.43
2019-01-20T09:18:15.641Z,5.40
2019-01-20T09:20:42.874Z,5.23
2019-01-20T09:23:10.110Z,5.97
2019-01-20T09:25:37.313Z,5.20
2019-01-20T09:28:04.862Z,5.50
2019-01-20T09:30:32.088Z,6.40
2019-01-20T09:32:59.301Z,6.03
2019-01-20T09:35:27.401Z,5.23
2019-01-20T09:37:55.476Z,5.10
2019-01-20T09:40:22.682Z,5.40
2019-01-20T09:42:49.910Z,5.00
2019-01-20T09:48:10.782Z,5.43
2019-01-20T09:53:45.250Z,5.27
2019-01-20T09:56:12.473Z,5.20
2019-01-20T09:58:39.702Z,5.63
2019-01-20T10:01:07.222Z,5.40
2019-01-20T10:03:34.453Z,5.47
2019-01-20T10:06:01.654Z,5.00
2019-01-20T10:08:28.894Z,5.60
2019-01-20T10:10:56.118Z,5.50
2019-01-20T10:13:23.322Z,5.07
2019-01-20T10:15:52.333Z,5.70
2019-01-20T10:18:19.822Z,5.70
2019-01-20T10:20:47.026Z,5.67
2019-01-20T10:23:14.535Z,5.60
2019-01-20T10:25:41.991Z,5.77
2019-01-20T10:28:09.287Z,5.77
2019-01-20T10:33:43.770Z,5.77
2019-01-20T10:36:11.254Z,5.53
2019-01-20T10:38:38.450Z,5.30
2019-01-20T10:41:05.745Z,5.03
2019-01-20T10:43:32.970Z,6.10
2019-01-20T10:46:00.181Z,6.10
2019-01-20T10:48:27.389Z,5.67
2019-01-20T10:50:54.632Z,5.73
2019-01-20T10:53:21.906Z,5.50
2019-01-20T10:55:49.184Z,5.73
2019-01-20T10:58:16.416Z,5.63
2019-01-20T11:00:43.655Z,6.03
2019-01-20T11:03:11.206Z,6.07
2019-01-20T11:05:38.767Z,6.07
2019-01-20T11:08:05.970Z,6.33
2019-01-20T11:10:33.198Z,6.73
2019-01-20T11:13:00.426Z,6.30
2019-01-20T11:15:27.639Z,7.27
2019-01-20T11:17:54.870Z,6.90
2019-01-20T11:26:07.982Z,10.30
2019-01-20T11:28:35.185Z,8.33
2019-01-20T11:31:02.424Z,7.47
2019-01-20T11:33:29.930Z,6.73
2019-01-20T11:35:57.177Z,7.30
2019-01-20T11:38:24.386Z,7.37
2019-01-20T11:40:51.598Z,6.90
2019-01-20T11:43:19.142Z,8.43
2019-01-20T11:45:46.598Z,7.57
2019-01-20T11:48:14.387Z,7.60
2019-01-20T11:50:43.086Z,7.50
2019-01-20T11:53:10.326Z,7.50
2019-01-20T11:55:37.555Z,7.57
2019-01-20T11:58:04.763Z,8.00
2019-01-20T12:03:25.415Z,7.97
2019-01-20T12:05:53.003Z,7.60
2019-01-20T12:08:20.230Z,7.50
2019-01-20T12:10:47.466Z,7.40
2019-01-20T12:16:03.074Z,7.77
2019-01-20T12:18:30.291Z,7.90
2019-01-20T12:20:57.535Z,7.93
2019-01-20T12:23:24.733Z,7.63
2019-01-20T12:25:51.970Z,8.03
2019-01-20T12:28:19.177Z,7.40
2019-01-20T12:30:46.424Z,7.83
2019-01-20T12:33:13.701Z,8.53
2019-01-20T12:35:40.919Z,7.97
2019-01-20T12:38:08.149Z,7.33
2019-01-20T12:43:42.633Z,9.50
2019-01-20T12:46:09.878Z,8.27
2019-01-20T12:48:37.078Z,7.73
2019-01-20T12:51:04.289Z,7.57
2019-01-20T12:53:31.796Z,8.07
2019-01-20T12:55:59.003Z,8.07
2019-01-20T12:58:26.206Z,8.53
2019-01-20T13:00:53.849Z,7.63
2019-01-20T13:03:21.088Z,8.20
2019-01-20T13:08:36.381Z,8.23
2019-01-20T13:11:03.619Z,7.97
2019-01-20T13:13:30.854Z,7.50
2019-01-20T13:15:58.081Z,8.57
2019-01-20T13:18:25.597Z,8.33
2019-01-20T13:23:31.366Z,7.40
2019-01-20T13:25:58.592Z,8.60
2019-01-20T13:28:25.828Z,7.80
2019-01-20T13:30:53.030Z,7.17
2019-01-20T13:33:20.262Z,8.07
2019-01-20T13:38:35.569Z,7.73
2019-01-20T13:41:02.772Z,8.07
2019-01-20T13:43:30.002Z,7.83
2019-01-20T13:45:57.514Z,8.17
2019-01-20T13:48:24.741Z,8.17
2019-01-20T13:50:51.970Z,7.57
2019-01-20T13:53:19.193Z,7.77
2019-01-20T13:55:46.440Z,7.50
2019-01-20T13:58:13.978Z,8.17
2019-01-20T14:00:41.214Z,7.60
2019-01-20T14:03:08.415Z,9.17
2019-01-20T14:05:35.645Z,7.67
2019-01-20T14:08:02.854Z,7.40
2019-01-20T14:10:30.078Z,7.90
2019-01-20T14:12:57.281Z,7.60
2019-01-20T14:15:24.502Z,7.50
2019-01-20T14:17:51.734Z,8.07
2019-01-20T14:23:26.533Z,7.27
2019-01-20T14:25:53.988Z,7.90
2019-01-20T14:28:21.225Z,8.17
2019-01-20T14:30:48.696Z,7.83
2019-01-20T14:33:15.902Z,8.47
2019-01-20T14:35:43.131Z,8.23
2019-01-20T14:38:10.335Z,8.00
2019-01-20T14:40:37.542Z,7.77
2019-01-20T14:43:04.769Z,7.93
2019-01-20T14:45:32.298Z,8.13
2019-01-20T14:47:59.857Z,7.23
2019-01-20T14:53:34.339Z,7.80
2019-01-20T14:56:01.546Z,7.77
2019-01-20T14:58:28.771Z,7.83
2019-01-20T15:00:55.998Z,8.00
2019-01-20T15:03:23.206Z,8.20
2019-01-20T15:05:50.770Z,8.40
2019-01-20T15:08:17.989Z,8.00
2019-01-20T15:10:45.570Z,8.33
2019-01-20T15:13:12.778Z,7.73
2019-01-20T15:18:34.046Z,7.97
2019-01-20T15:21:01.258Z,8.27
2019-01-20T15:23:28.864Z,7.50
2019-01-20T15:25:56.074Z,8.03
2019-01-20T15:28:23.278Z,8.83
2019-01-20T15:30:50.534Z,9.20
2019-01-20T15:33:17.844Z,9.53
2019-01-20T15:35:45.052Z,9.30
2019-01-20T15:38:12.257Z,8.90
2019-01-20T15:40:39.494Z,9.07
2019-01-20T15:43:06.973Z,10.70
2019-01-20T15:45:34.213Z,11.93
2019-01-20T15:48:01.694Z,11.23
2019-01-20T15:53:22.914Z,9.30
2019-01-20T15:55:50.138Z,9.70
2019-01-20T15:58:17.614Z,9.77
2019-01-20T16:00:45.174Z,9.53
2019-01-20T16:03:12.734Z,9.87
2019-01-20T16:05:39.945Z,10.27
2019-01-20T16:08:07.175Z,8.87
2019-01-20T16:10:34.386Z,9.27
2019-01-20T16:13:01.590Z,8.70
2019-01-20T16:18:22.310Z,8.97
2019-01-20T16:23:37.617Z,9.17
2019-01-20T16:26:04.822Z,8.97
2019-01-20T16:28:32.052Z,9.70
2019-01-20T16:30:59.263Z,8.93
2019-01-20T16:33:26.752Z,9.40
2019-01-20T16:35:53.965Z,9.57
2019-01-20T16:38:21.191Z,9.00
2019-01-20T16:40:48.422Z,9.73
2019-01-20T16:43:15.966Z,8.80
2019-01-20T16:45:43.185Z,9.40
2019-01-20T16:48:10.480Z,9.50
2019-01-20T16:50:37.691Z,10.53
2019-01-20T16:53:04.926Z,10.43
2019-01-20T16:55:32.130Z,9.47
2019-01-20T16:57:59.361Z,10.00
2019-01-20T17:00:47.387Z,11.30
2019-01-20T17:03:14.621Z,10.87
2019-01-20T17:05:41.825Z,9.90
2019-01-20T17:08:09.374Z,10.60
2019-01-20T17:13:43.854Z,11.30
2019-01-20T17:16:11.090Z,10.97
2019-01-20T17:18:38.306Z,11.80
2019-01-20T17:21:05.863Z,9.60
2019-01-20T17:23:33.326Z,10.50
2019-01-20T17:26:00.562Z,11.00
2019-01-20T17:28:28.135Z,11.60
2019-01-20T17:30:55.350Z,11.70
2019-01-20T17:33:22.585Z,11.27
2019-01-20T17:35:50.094Z,11.40
2019-01-20T17:38:17.317Z,14.40
2019-01-20T17:40:44.534Z,14.43
2019-01-20T17:43:12.154Z,14.47
2019-01-20T17:48:33.211Z,14.00
2019-01-20T17:51:00.418Z,13.70
2019-01-20T17:53:27.645Z,14.00
2019-01-20T17:55:54.862Z,15.47
2019-01-20T17:58:22.386Z,14.70
2019-01-20T18:03:37.694Z,16.10
2019-01-20T18:06:04.997Z,17.33
2019-01-20T18:08:32.491Z,14.93
2019-01-20T18:10:59.941Z,16.73
2019-01-20T18:13:27.186Z,15.17
2019-01-20T18:15:54.979Z,14.77
2019-01-20T18:18:23.652Z,13.87
2019-01-20T18:20:50.881Z,13.23
2019-01-20T18:23:18.114Z,12.67
2019-01-20T18:25:45.321Z,13.37
2019-01-20T18:28:12.954Z,12.87
2019-01-20T18:30:40.161Z,13.27
2019-01-20T18:33:07.403Z,12.57
2019-01-20T18:35:34.637Z,11.80
2019-01-20T18:38:01.852Z,11.00
2019-01-20T18:40:29.057Z,12.50
2019-01-20T18:42:56.287Z,12.13
2019-01-20T18:45:42.867Z,13.10
2019-01-20T18:48:10.069Z,12.27
2019-01-20T18:53:30.978Z,11.87
2019-01-20T18:55:58.215Z,12.13
2019-01-20T18:58:25.762Z,12.27
2019-01-20T19:00:53.005Z,12.20
2019-01-20T19:03:20.217Z,12.20
2019-01-20T19:05:47.518Z,12.60
2019-01-20T19:08:14.734Z,11.37
2019-01-20T19:10:41.966Z,13.17
2019-01-20T19:13:09.248Z,12.17
2019-01-20T19:15:36.482Z,13.27
2019-01-20T19:21:11.011Z,13.60
2019-01-20T19:23:38.222Z,15.83
2019-01-20T19:26:05.434Z,18.40
2019-01-20T19:28:33.006Z,15.50
2019-01-20T19:31:00.235Z,13.93
2019-01-20T19:33:27.769Z,14.10
2019-01-20T19:35:55.270Z,12.93
2019-01-20T19:38:22.482Z,11.87
2019-01-20T19:40:49.734Z,12.50
2019-01-20T19:43:16.953Z,13.07
2019-01-20T19:45:44.187Z,22.77
2019-01-20T19:48:19.674Z,21.73
2019-01-20T19:50:40.367Z,16.07
2019-01-20T19:53:07.677Z,18.80
2019-01-20T19:55:34.879Z,17.10
2019-01-20T19:58:02.178Z,14.40
2019-01-20T20:03:36.658Z,12.93
2019-01-20T20:08:57.389Z,13.77
2019-01-20T20:11:24.598Z,18.37
2019-01-20T20:13:51.834Z,19.90
2019-01-20T20:16:23.369Z,19.53
2019-01-20T20:18:48.012Z,21.17
2019-01-20T20:21:15.633Z,24.20
2019-01-20T20:23:42.857Z,24.03
2019-01-20T20:26:10.075Z,19.47
2019-01-20T20:28:37.306Z,18.10
2019-01-20T20:31:04.527Z,17.73
2019-01-20T20:33:31.757Z,18.90
2019-01-20T20:35:58.978Z,18.83
2019-01-20T20:38:26.205Z,17.77
2019-01-20T20:40:53.746Z,17.80
2019-01-20T20:43:20.985Z,17.50
2019-01-20T20:45:48.213Z,20.03
2019-01-20T20:48:15.430Z,20.27
2019-01-20T20:50:42.668Z,19.43
2019-01-20T20:53:09.954Z,18.37
2019-01-20T20:55:37.182Z,20.10
2019-01-20T20:58:04.403Z,16.60
2019-01-20T21:03:25.382Z,16.20
2019-01-20T21:05:52.600Z,15.83
2019-01-20T21:08:19.832Z,15.47
2019-01-20T21:10:47.059Z,17.17
2019-01-20T21:13:14.277Z,18.03
2019-01-20T21:15:41.510Z,15.97
2019-01-20T21:18:08.725Z,18.73
2019-01-20T21:20:35.962Z,15.90
2019-01-20T21:23:03.536Z,17.47
2019-01-20T21:25:30.749Z,15.23
2019-01-20T21:27:58.255Z,14.40
2019-01-20T21:33:19.351Z,13.43
2019-01-20T21:35:47.744Z,15.30
2019-01-20T21:38:15.535Z,14.23
2019-01-20T21:40:42.766Z,16.23
2019-01-20T21:43:09.981Z,15.17
2019-01-20T21:45:37.226Z,15.13
2019-01-20T21:48:04.438Z,16.30
2019-01-20T21:50:31.673Z,13.90
2019-01-20T21:52:59.235Z,13.70
2019-01-20T21:55:26.507Z,12.00
2019-01-20T21:57:53.825Z,11.53
2019-01-20T22:03:15.171Z,10.90
2019-01-20T22:05:42.381Z,10.80
2019-01-20T22:08:09.618Z,11.00
2019-01-20T22:10:36.863Z,13.63
2019-01-20T22:13:04.070Z,14.20
2019-01-20T22:15:31.310Z,12.27
2019-01-20T22:17:58.605Z,13.97
2019-01-20T22:20:25.863Z,16.30
2019-01-20T22:22:53.099Z,14.60
2019-01-20T22:25:20.626Z,14.90
2019-01-20T22:27:47.839Z,13.73
2019-01-20T22:33:09.319Z,14.93
2019-01-20T22:35:36.529Z,14.43
2019-01-20T22:38:03.830Z,13.73
2019-01-20T22:40:31.046Z,16.37
2019-01-20T22:42:58.321Z,13.27
2019-01-20T22:48:32.822Z,10.60
2019-01-20T22:51:00.041Z,11.60
2019-01-20T22:53:27.246Z,17.90
2019-01-20T22:55:54.478Z,22.10
2019-01-20T22:58:21.736Z,19.80
2019-01-20T23:03:43.150Z,11.93
2019-01-20T23:06:10.658Z,10.20
2019-01-20T23:08:38.230Z,10.20
2019-01-20T23:11:05.445Z,10.23
2019-01-20T23:13:32.737Z,10.23
2019-01-20T23:15:59.958Z,10.33
2019-01-20T23:18:27.190Z,10.03
2019-01-20T23:20:54.421Z,11.17
2019-01-20T23:23:21.642Z,10.57
2019-01-20T23:25:48.878Z,9.87
2019-01-20T23:28:16.094Z,10.53
2019-01-20T23:30:43.334Z,11.10
2019-01-20T23:33:10.563Z,11.10
2019-01-20T23:35:37.774Z,11.50
2019-01-20T23:38:05.334Z,10.07
2019-01-20T23:43:26.246Z,10.43
2019-01-20T23:45:53.814Z,10.60
2019-01-20T23:48:21.025Z,11.33
2019-01-20T23:50:48.622Z,11.50
2019-01-20T23:53:15.842Z,10.80
2019-01-20T23:55:43.074Z,10.97
2019-01-20T23:58:10.298Z,11.27
